Latest Weather Observations for Applethorpe

IDQ60801

Issued at 9:32 am EST Sunday 17 February 2019 (issued every 10 minutes, with the page automatically refreshed every 10 minutes)

About weather observations | Map of weather stations | Latest weather observations for QLD | Other Formats
Station Details ID: 041175 Name: APPLETHORPE Lat: -28.62 Lon: 151.95 Height: 871.6 m
Data from the previous 72 hours. | See also: Recent months at Applethorpe
Date/Time
EST
Temp
°C
App
Temp
°C
Dew
Point
°C
Rel
Hum
%
Delta-T
°C
Wind Press
QNH
hPa
Press
MSL
hPa
Rain since
9am
mm
Dir  Spd
km/h
Gust
km/h
Spd
kts
Gust
kts
17/09:00am 21.4 20.1 12.5 57 5.2 ENE 11 20 6 11 1019.1 1014.5 0.0
17/08:30am 19.9 17.6 11.7 59 4.7 ESE 15 26 8 14 1019.0 1014.4 0.0
17/08:00am 19.1 17.8 12.4 65 3.9 E 11 22 6 12 1018.9 1014.3 0.0
17/07:30am 17.5 16.6 13.8 79 2.2 E 11 19 6 10 1018.7 1014.0 0.0
17/07:00am 16.1 16.7 15.9 99 0.1 E 7 15 4 8 1018.6 1013.9 0.0
17/06:30am 14.6 15.3 14.4 99 0.1 ENE 4 7 2 4 1018.2 1013.6 0.0
17/06:00am 13.9 14.7 13.7 99 0.1 E 2 6 1 3 1018.0 1013.4 0.0
17/05:30am 14.3 14.8 14.1 99 0.1 E 4 9 2 5 1017.8 1013.1 0.0
17/05:00am 14.7 15.0 14.5 99 0.1 E 6 17 3 9 1017.6 1012.9 0.0
17/04:30am 14.8 15.5 14.6 99 0.1 E 4 11 2 6 1017.5 1012.8 0.0
17/04:00am 14.7 15.0 14.5 99 0.1 ENE 6 11 3 6 1017.5 1012.8 0.0
17/03:30am 14.4 14.6 14.2 99 0.1 ENE 6 11 3 6 1017.6 1012.9 0.0
17/03:00am 14.7 14.8 14.5 99 0.1 E 7 19 4 10 1017.7 1013.0 0.0
17/02:30am 14.8 15.1 14.6 99 0.1 E 6 11 3 6 1017.9 1013.3 0.0
17/02:00am 14.5 14.7 14.3 99 0.1 E 6 15 3 8 1018.1 1013.5 0.0
17/01:30am 14.7 15.0 14.5 99 0.1 E 6 15 3 8 1018.3 1013.7 0.0
17/01:00am 14.9 14.9 14.3 96 0.4 E 7 13 4 7 1018.7 1014.0 0.0
17/12:30am 15.2 15.2 14.2 94 0.6 ESE 7 17 4 9 1019.1 1014.5 0.0
17/12:00am 15.4 15.6 14.1 92 0.8 E 6 13 3 7 1019.5 1014.9 0.0
 
Date/Time
EST
Temp
°C
App
Temp
°C
Dew
Point
°C
Rel
Hum
%
Delta-T
°C
Wind Press
QNH
hPa
Press
MSL
hPa
Rain since
9am
mm
Dir  Spd
km/h
Gust
km/h
Spd
kts
Gust
kts
16/11:30pm 15.3 15.1 13.7 90 0.9 ESE 7 15 4 8 1019.8 1015.1 0.0
16/11:00pm 15.5 15.2 13.2 86 1.3 E 7 20 4 11 1020.0 1015.4 0.0
16/10:30pm 15.7 15.3 13.0 84 1.6 E 7 17 4 9 1020.0 1015.4 0.0
16/10:00pm 16.1 15.4 13.2 83 1.7 E 9 20 5 11 1020.3 1015.7 0.0
16/09:30pm 16.4 16.0 13.1 81 1.9 E 7 13 4 7 1020.3 1015.7 0.0
16/09:00pm 17.0 16.4 13.5 80 2.1 E 9 20 5 11 1020.2 1015.6 0.0
16/08:30pm 17.4 16.5 13.7 79 2.2 E 11 20 6 11 1020.0 1015.4 0.0
16/08:00pm 17.8 17.8 13.7 77 2.4 E 6 17 3 9 1019.9 1015.2 0.0
16/07:30pm 18.5 18.3 13.6 73 2.9 E 7 19 4 10 1019.5 1014.9 0.0
16/07:00pm 19.2 18.6 13.4 69 3.4 E 9 19 5 10 1019.3 1014.7 0.0
16/06:30pm 20.0 19.2 13.0 64 4.1 E 9 19 5 10 1019.2 1014.6 0.0
16/06:00pm 21.0 20.2 12.9 60 4.8 E 9 20 5 11 1018.9 1014.3 0.0
16/05:30pm 22.3 21.8 12.5 53 5.8 E 7 15 4 8 1018.7 1014.0 0.0
16/05:00pm 23.2 21.9 11.3 47 6.9 E 9 19 5 10 1018.7 1014.0 0.0
16/04:30pm 23.3 22.0 11.4 47 6.9 ESE 9 20 5 11 1018.9 1014.3 0.0
16/04:00pm 24.3 23.2 11.9 45 7.3 E 9 22 5 12 1018.8 1014.1 0.0
16/03:30pm 25.2 23.9 12.4 45 7.7 E 11 24 6 13 1018.8 1014.1 0.0
16/03:00pm 24.9 23.1 9.6 38 8.7 ESE 9 19 5 10 1018.9 1014.3 0.0
16/02:30pm 25.0 23.3 11.2 42 8.1 E 11 20 6 11 1019.0 1014.4 0.0
16/02:00pm 24.9 23.4 10.4 40 8.4 E 9 19 5 10 1019.5 1014.9 0.0
16/01:30pm 24.3 22.3 10.2 41 8.1 ESE 11 24 6 13 1020.2 1015.6 0.0
16/01:00pm 24.5 23.2 11.1 43 7.8 ESE 9 17 5 9 1020.6 1016.0 0.0
16/12:30pm 24.6 23.4 11.5 44 7.7 ESE 9 15 5 8 1021.0 1016.4 0.0
16/12:00pm 23.9 22.8 11.9 47 7.1 ESE 9 20 5 11 1021.5 1016.9 0.0
16/11:30am 22.7 20.8 11.7 49 6.4 ESE 13 24 7 13 1022.0 1017.5 0.0
16/11:00am 22.8 21.0 12.1 51 6.3 ESE 13 28 7 15 1022.2 1017.6 0.0
16/10:30am 21.7 20.2 13.1 58 5.1 ESE 13 22 7 12 1022.4 1017.8 0.0
16/10:00am 20.4 18.6 12.1 59 4.8 ESE 13 24 7 13 1022.6 1018.0 0.0
16/09:30am 19.9 18.4 11.9 60 4.6 E 11 28 6 15 1022.6 1018.0 0.0
16/09:00am 20.6 19.2 12.1 58 4.9 ESE 11 20 6 11 1022.5 1017.9 0.0
16/08:30am 19.8 17.7 12.3 62 4.4 E 15 28 8 15 1022.0 1017.5 0.0
16/08:00am 19.0 17.3 12.3 65 3.9 ESE 13 22 7 12 1021.8 1017.2 0.0
16/07:30am 18.0 15.7 10.6 62 4.1 E 13 28 7 15 1021.7 1017.1 0.0
16/07:00am 16.6 15.7 12.6 77 2.3 ESE 9 20 5 11 1021.6 1017.0 0.0
16/06:30am 15.5 14.0 13.2 86 1.3 ESE 13 24 7 13 1021.5 1016.9 0.0
16/06:00am 15.4 14.5 13.6 89 1.0 ESE 11 26 6 14 1021.3 1016.7 0.0
16/05:30am 15.3 14.9 14.0 92 0.8 ESE 9 32 5 17 1021.1 1016.5 0.0
16/05:00am 15.2 14.1 14.4 95 0.5 ESE 13 28 7 15 1020.6 1016.0 0.0
16/04:30am 15.1 14.1 14.5 96 0.4 ESE 13 28 7 15 1020.4 1015.8 0.0
16/04:00am 14.8 13.7 14.3 97 0.3 ESE 13 26 7 14 1020.3 1015.7 0.0
16/03:30am 14.6 13.8 14.1 97 0.3 ESE 11 26 6 14 1020.3 1015.7 0.0
16/03:00am 14.6 13.7 13.8 95 0.5 ESE 11 30 6 16 1020.4 1015.8 0.0
16/02:30am 14.9 13.9 13.4 91 0.9 ESE 11 26 6 14 1020.7 1016.1 0.0
16/02:00am 15.0 14.2 13.9 93 0.6 ESE 11 28 6 15 1021.2 1016.6 0.0
16/01:30am 15.0 14.2 13.9 93 0.6 ESE 11 19 6 10 1021.5 1016.9 0.0
16/01:00am 15.3 14.2 14.2 93 0.6 ESE 13 26 7 14 1021.7 1017.1 0.0
16/12:30am 15.2 14.0 14.1 93 0.6 ESE 13 24 7 13 1021.9 1017.3 0.0
16/12:00am 14.8 14.2 13.5 92 0.8 ESE 9 17 5 9 1022.5 1017.9 0.0
 
Date/Time
EST
Temp
°C
App
Temp
°C
Dew
Point
°C
Rel
Hum
%
Delta-T
°C
Wind Press
QNH
hPa
Press
MSL
hPa
Rain since
9am
mm
Dir  Spd
km/h
Gust
km/h
Spd
kts
Gust
kts
15/11:30pm 14.8 14.0 12.8 88 1.1 ESE 9 20 5 11 1022.8 1018.2 0.0
15/11:00pm 15.1 13.4 12.4 84 1.5 ESE 13 22 7 12 1023.2 1018.7 0.0
15/10:30pm 15.3 13.7 11.7 79 2.0 ESE 11 24 6 13 1023.2 1018.7 0.0
15/10:00pm 15.8 14.2 11.4 75 2.5 ESE 11 26 6 14 1023.4 1018.8 0.0
15/09:30pm 16.2 13.8 11.4 73 2.7 ESE 15 28 8 15 1023.5 1018.9 0.0
15/09:00pm 16.6 15.1 12.0 74 2.6 ESE 11 28 6 15 1023.5 1018.9 0.0
15/08:30pm 16.9 16.1 11.8 72 2.9 E 7 15 4 8 1023.4 1018.8 0.0
15/08:00pm 17.4 16.1 11.2 67 3.5 ESE 9 22 5 12 1023.0 1018.4 0.0
15/07:30pm 17.9 17.0 11.2 65 3.8 E 7 22 4 12 1022.7 1018.1 0.0
15/07:00pm 18.8 17.5 11.1 61 4.4 ESE 9 22 5 12 1022.4 1017.8 0.0
15/06:30pm 19.9 18.6 11.1 57 5.0 E 9 17 5 9 1021.9 1017.3 0.0
15/06:00pm 21.3 19.4 10.5 50 6.1 E 11 20 6 11 1021.4 1016.8 0.0
15/05:30pm 22.4 21.2 10.2 46 6.9 E 7 19 4 10 1021.1 1016.5 0.0
15/05:00pm 23.1 21.1 10.2 44 7.3 ESE 11 24 6 13 1020.7 1016.1 0.0
15/04:30pm 23.5 21.4 9.9 42 7.7 ESE 11 24 6 13 1020.6 1016.0 0.0
15/04:00pm 24.6 23.1 10.5 41 8.1 E 9 17 5 9 1020.6 1016.0 0.0
15/03:30pm 24.1 22.2 10.4 42 7.9 E 11 22 6 12 1020.6 1016.0 0.0
15/03:00pm 24.2 22.4 10.8 43 7.7 ESE 11 20 6 11 1020.9 1016.2 0.0
15/02:30pm 25.2 23.5 9.9 38 8.8 ESE 9 20 5 11 1021.0 1016.4 0.0
15/02:00pm 25.8 24.0 9.6 36 9.2 ESE 9 24 5 13 1021.1 1016.5 0.0
15/01:30pm 25.9 23.9 8.8 34 9.7 ESE 9 20 5 11 1021.4 1016.8 0.0
15/01:00pm 25.3 23.3 10.0 38 8.8 ESE 11 20 6 11 1021.7 1017.1 0.0
15/12:30pm 25.3 23.0 10.4 39 8.6 ESE 13 30 7 16 1022.0 1017.5 0.0
15/12:00pm 24.8 23.4 11.0 42 8.0 ESE 9 19 5 10 1022.5 1017.9 0.0
15/11:30am 23.3 21.5 11.0 46 7.1 ESE 11 24 6 13 1022.8 1018.2 0.0
15/11:00am 23.4 21.8 11.5 47 6.9 E 11 24 6 13 1022.9 1018.3 0.0
15/10:30am 22.6 20.7 11.7 50 6.4 ESE 13 24 7 13 1023.1 1018.6 0.0
15/10:00am 21.4 19.2 12.0 55 5.5 ESE 15 30 8 16 1023.4 1018.8 0.0
15/09:30am 20.6 18.9 12.6 60 4.7 ESE 13 32 7 17 1023.6 1019.0 0.0
15/09:00am 19.6 17.5 12.4 63 4.2 ESE 15 28 8 15 1023.4 1018.8 0.0
15/08:30am 19.2 18.1 13.2 68 3.5 ESE 11 24 6 13 1023.2 1018.7 0.0
15/08:00am 17.6 15.9 12.5 72 2.9 ESE 13 28 7 15 1023.2 1018.7 0.0
15/07:30am 17.4 15.6 13.3 77 2.4 E 15 28 8 15 1022.9 1018.3 0.0
15/07:00am 16.2 15.0 14.0 87 1.3 ESE 13 28 7 15 1022.8 1018.2 0.0
15/06:30am 15.9 14.8 14.4 91 0.9 ESE 13 24 7 13 1022.7 1018.1 0.0
15/06:00am 15.7 15.1 14.7 94 0.6 ESE 11 28 6 15 1022.4 1017.8 0.0
15/05:30am 15.5 14.9 14.5 94 0.6 ESE 11 24 6 13 1022.0 1017.5 0.0
15/05:00am 15.6 15.4 14.6 94 0.6 E 9 22 5 12 1021.8 1017.2 0.0
15/04:30am 15.6 15.4 14.6 94 0.6 E 9 24 5 13 1021.6 1017.0 0.0
15/04:00am 15.6 15.0 14.6 94 0.6 ESE 11 26 6 14 1021.4 1016.8 0.0
15/03:30am 15.5 15.3 14.7 95 0.5 ESE 9 24 5 13 1021.4 1016.8 0.0
15/03:00am 15.6 15.1 15.0 96 0.4 E 11 26 6 14 1021.3 1016.7 0.0
15/02:30am 15.5 14.6 14.9 96 0.4 E 13 30 7 16 1021.4 1016.8 0.0
15/02:00am 15.4 14.9 14.9 97 0.3 ESE 11 26 6 14 1021.4 1016.8 0.0
15/01:30am 15.3 15.1 14.8 97 0.3 ESE 9 20 5 11 1021.4 1016.8 0.0
15/01:00am 15.2 15.0 14.6 96 0.4 E 9 19 5 10 1021.5 1016.9 0.0
15/12:30am 15.2 14.9 14.4 95 0.5 E 9 19 5 10 1021.6 1017.0 0.0
15/12:00am 15.5 15.3 14.7 95 0.5 E 9 20 5 11 1021.7 1017.1 0.0
 
Date/Time
EST
Temp
°C
App
Temp
°C
Dew
Point
°C
Rel
Hum
%
Delta-T
°C
Wind Press
QNH
hPa
Press
MSL
hPa
Rain since
9am
mm
Dir  Spd
km/h
Gust
km/h
Spd
kts
Gust
kts
14/11:30pm 15.6 15.0 14.6 94 0.6 E 11 26 6 14 1021.7 1017.1 0.0
14/11:00pm 15.6 14.9 14.3 92 0.8 E 11 22 6 12 1021.7 1017.1 0.0
14/10:30pm 15.6 14.8 14.0 90 0.9 E 11 19 6 10 1021.7 1017.1 0.0
14/10:00pm 15.9 15.1 14.1 89 1.1 E 11 28 6 15 1021.7 1017.1 0.0
14/09:30pm 16.2 15.4 13.9 86 1.4 E 11 24 6 13 1021.6 1017.0 0.0
14/09:00pm 16.6 15.3 13.7 83 1.7 E 13 26 7 14 1021.5 1016.9 0.0
14/08:30pm 16.9 15.3 13.8 82 1.8 ESE 15 26 8 14 1021.2 1016.6 0.0
14/08:00pm 17.1 15.9 14.0 82 1.8 ESE 13 28 7 15 1020.7 1016.1 0.0
14/07:30pm 17.5 16.3 14.0 80 2.1 ESE 13 26 7 14 1020.4 1015.8 0.0
14/07:00pm 17.8 17.0 14.1 79 2.2 E 11 22 6 12 1020.2 1015.6 0.0
14/06:30pm 18.2 17.4 14.1 77 2.4 E 11 28 6 15 1019.9 1015.2 0.0
14/06:00pm 18.6 17.4 14.1 75 2.7 E 13 28 7 15 1019.4 1014.8 0.0
14/05:30pm 18.9 17.3 14.0 73 2.9 ESE 15 30 8 16 1019.2 1014.6 0.0
14/05:00pm 20.0 19.3 14.4 70 3.4 ESE 11 20 6 11 1018.9 1014.3 0.0
14/04:30pm 21.5 20.2 14.9 66 4.0 E 15 32 8 17 1018.7 1014.0 0.0
14/04:00pm 20.8 18.9 14.2 66 4.0 ESE 17 30 9 16 1018.7 1014.0 0.0
14/03:30pm 21.1 19.2 14.3 65 4.1 E 17 28 9 15 1018.5 1013.8 0.0
14/03:00pm 21.5 20.3 13.9 62 4.6 ESE 13 28 7 15 1018.2 1013.6 0.0
14/02:30pm 21.2 19.8 14.6 66 4.0 ESE 15 33 8 18 1018.3 1013.7 0.0
14/02:00pm 21.8 20.9 14.9 65 4.2 ESE 13 26 7 14 1018.3 1013.7 0.0
14/01:30pm 20.9 19.8 15.2 70 3.5 E 15 28 8 15 1018.7 1014.0 0.0
14/01:00pm 20.8 19.5 14.7 68 3.7 ESE 15 28 8 15 1018.5 1013.8 0.0
14/12:30pm 22.5 21.8 15.4 64 4.4 E 13 26 7 14 1018.5 1013.8 0.0
14/12:00pm 21.5 20.9 15.6 69 3.7 ESE 13 28 7 15 1018.7 1014.0 0.0
14/11:30am 20.4 18.7 14.7 70 3.5 ESE 17 33 9 18 1018.7 1014.0 0.0
14/11:00am 21.9 20.6 15.7 68 3.9 E 17 32 9 17 1018.5 1013.8 0.0
14/10:30am 20.1 18.8 15.7 76 2.7 ESE 17 30 9 16 1018.5 1013.8 0.0
14/10:00am 18.7 17.4 15.8 83 1.8 ESE 17 32 9 17 1018.5 1013.8 0.0

Other Formats:

Comma delimited format used in spreadsheet applications
http://www.bom.gov.au/fwo/IDQ60801/IDQ60801.94553.axf

JavaScript Object Notation format (JSON) in row-major order
http://www.bom.gov.au/fwo/IDQ60801/IDQ60801.94553.json